Time;durP1;ratioP1;P1;durP2;ratioP2;P2;SDS_P1;SDS_P2;PMS_P1;PMS_P2;Temp;Humidity;BMP_temperature;BMP_pressure;BME280_temperature;BME280_humidity;BME280_pressure;Samples;Min_cycle;Max_cycle;Signal;HPM_P1;HPM_P2
2021/07/13 00:00:16;;;;;;;3.95;2.10;;;;;;;24.32;59.52;100005.06;4993830;28;20027;-72
2021/07/13 00:02:42;;;;;;;3.58;2.50;;;;;;;24.20;59.44;100003.88;4994584;28;20038;-72
2021/07/13 00:05:19;;;;;;;2.58;2.28;;;;;;;24.18;59.63;100008.41;4993890;28;20046;-73
2021/07/13 00:07:47;;;;;;;4.78;2.15;;;;;;;24.20;59.31;100005.91;4978846;28;20085;-71
2021/07/13 00:10:20;;;;;;;2.42;2.20;;;;;;;24.22;58.16;100003.41;4997475;28;20088;-72
2021/07/13 00:12:50;;;;;;;2.40;2.20;;;;;;;24.12;58.82;100002.53;5014542;28;20084;-73
2021/07/13 00:15:27;;;;;;;3.88;2.40;;;;;;;24.10;58.60;99993.66;5014811;28;20141;-72
2021/07/13 00:17:58;;;;;;;2.80;2.05;;;;;;;24.29;58.02;100000.31;4980679;28;20091;-71
2021/07/13 00:20:27;;;;;;;2.67;2.47;;;;;;;24.24;57.62;99998.84;4996762;28;20057;-71
2021/07/13 00:22:59;;;;;;;2.40;2.20;;;;;;;24.12;57.76;99988.31;4996930;28;20492;-72
2021/07/13 00:25:26;;;;;;;4.28;1.85;;;;;;;24.11;58.04;99988.78;4997067;28;20364;-73
2021/07/13 00:27:52;;;;;;;4.47;1.95;;;;;;;24.11;58.62;99991.63;4996613;28;20030;-72
2021/07/13 00:30:21;;;;;;;2.83;2.10;;;;;;;24.07;58.26;99977.53;4996554;28;20037;-71
2021/07/13 00:32:50;;;;;;;1.90;1.80;;;;;;;24.09;57.97;99980.72;4997045;28;20030;-73
2021/07/13 00:35:17;;;;;;;2.78;2.28;;;;;;;23.99;58.91;99977.00;4980377;28;20026;-71
2021/07/13 00:37:48;;;;;;;6.10;2.20;;;;;;;23.88;58.76;99947.38;4996902;28;20077;-71
2021/07/13 00:40:17;;;;;;;2.30;2.10;;;;;;;23.89;58.57;99983.06;5013710;28;20025;-72
2021/07/13 00:42:46;;;;;;;3.58;2.25;;;;;;;23.81;59.06;99988.22;4980039;28;20484;-73
2021/07/13 00:45:15;;;;;;;2.15;1.95;;;;;;;23.73;58.40;99981.16;4996638;28;20036;-72
2021/07/13 00:47:46;;;;;;;4.35;1.98;;;;;;;23.71;58.25;99966.63;4996326;28;20131;-73
2021/07/13 00:50:15;;;;;;;2.78;2.20;;;;;;;23.70;58.35;99959.34;4996313;28;20033;-74
2021/07/13 00:52:43;;;;;;;4.85;1.95;;;;;;;23.74;58.08;99963.66;4996831;28;20036;-72
2021/07/13 00:55:13;;;;;;;2.33;1.95;;;;;;;23.83;57.76;99956.50;4996208;28;20121;-70
2021/07/13 00:57:40;;;;;;;3.78;2.13;;;;;;;23.75;58.29;99942.53;5014110;28;20179;-72
2021/07/13 01:00:12;;;;;;;2.30;1.95;;;;;;;23.71;58.25;99943.91;4996081;28;20026;-71
2021/07/13 01:02:41;;;;;;;2.20;2.10;;;;;;;23.70;58.39;99943.13;4996128;28;20026;-71
2021/07/13 01:05:14;;;;;;;3.22;2.50;;;;;;;23.70;58.06;99948.00;4996420;28;20111;-71
2021/07/13 01:07:56;;;;;;;3.30;2.00;;;;;;;23.56;58.46;99922.91;4996062;28;20042;-71
2021/07/13 01:10:50;;;;;;;2.80;2.10;;;;;;;23.72;58.29;99932.09;4995995;28;20044;-72
2021/07/13 01:13:33;;;;;;;3.42;1.73;;;;;;;23.62;58.68;99923.91;4996757;28;20472;-72
2021/07/13 01:16:11;;;;;;;2.45;2.20;;;;;;;23.70;58.80;99930.94;4995982;28;20070;-73
2021/07/13 01:18:47;;;;;;;4.78;2.30;;;;;;;23.60;59.56;99915.06;4995896;28;20494;-73
2021/07/13 01:21:29;;;;;;;2.13;1.88;;;;;;;23.57;60.03;99918.81;4996171;28;20128;-71
2021/07/13 01:24:36;;;;;;;1.90;1.80;;;;;;;23.57;60.27;99933.81;5013487;28;20048;-74
2021/07/13 01:27:33;;;;;;;6.72;2.67;;;;;;;23.59;63.04;99936.97;4995870;28;20129;-72
2021/07/13 01:30:04;;;;;;;2.40;2.20;;;;;;;23.64;63.13;99924.25;4995891;28;20034;-73
2021/07/13 01:32:39;;;;;;;3.80;2.50;;;;;;;23.63;63.76;99911.31;4980143;28;20037;-72
2021/07/13 01:35:11;;;;;;;4.30;2.75;;;;;;;23.63;63.47;99917.00;4995751;28;20088;-72
2021/07/13 01:37:39;;;;;;;5.85;3.75;;;;;;;23.63;63.32;99919.84;4995978;28;20034;-72
2021/07/13 01:40:09;;;;;;;4.10;2.47;;;;;;;23.67;63.25;99912.78;5013568;28;20108;-72
2021/07/13 01:42:36;;;;;;;4.78;2.90;;;;;;;23.82;63.13;99915.94;4995669;28;20121;-72
2021/07/13 01:45:03;;;;;;;3.58;2.30;;;;;;;23.80;62.74;99918.41;4995615;28;20096;-71
2021/07/13 01:47:36;;;;;;;6.72;2.45;;;;;;;23.80;63.06;99912.75;4995861;28;20030;-73
2021/07/13 01:50:03;;;;;;;;;;;;;;;23.81;63.19;99920.03;4996742;28;20088;-72
2021/07/13 01:52:36;;;;;;;4.70;2.28;;;;;;;23.75;63.66;99913.31;4995541;28;19925;-73
2021/07/13 01:55:04;;;;;;;2.90;2.50;;;;;;;23.77;63.59;99910.84;4980044;28;20033;-72
2021/07/13 01:57:34;;;;;;;2.40;2.22;;;;;;;23.75;63.95;99904.81;4995740;28;20487;-70
2021/07/13 02:00:03;;;;;;;5.22;2.30;;;;;;;23.83;63.64;99902.50;4979435;28;20077;-70
2021/07/13 02:02:38;;;;;;;3.60;2.55;;;;;;;23.74;64.41;99903.22;4995893;28;20034;-72
2021/07/13 02:05:05;;;;;;;4.20;2.25;;;;;;;23.70;64.53;99902.53;4995671;28;20104;-73
2021/07/13 02:07:37;;;;;;;4.28;2.67;;;;;;;23.66;64.61;99888.50;4996122;28;20405;-72
2021/07/13 02:10:06;;;;;;;5.60;2.60;;;;;;;23.70;65.09;99891.19;4975501;28;20383;-73
2021/07/13 02:12:36;;;;;;;8.48;2.50;;;;;;;23.79;64.88;99902.63;4992314;28;20023;-70
2021/07/13 02:15:04;;;;;;;4.10;2.60;;;;;;;23.73;64.89;99884.59;4993423;28;20076;-73
2021/07/13 02:17:32;;;;;;;2.30;2.03;;;;;;;23.68;65.26;99888.81;4992169;28;20026;-72
2021/07/13 02:19:59;;;;;;;4.07;2.90;;;;;;;23.69;65.30;99889.59;4992062;28;20556;-73
2021/07/13 02:22:28;;;;;;;4.63;2.45;;;;;;;23.66;65.32;99879.19;4992070;28;20026;-70
2021/07/13 02:24:56;;;;;;;4.00;2.83;;;;;;;23.60;65.02;99861.91;4992568;28;20034;-73
2021/07/13 02:27:31;;;;;;;3.15;2.25;;;;;;;23.60;65.29;99863.97;4992060;28;20493;-72
2021/07/13 02:30:00;;;;;;;2.58;2.15;;;;;;;23.55;65.33;99861.69;4993252;28;20026;-71
2021/07/13 02:32:35;;;;;;;3.20;2.50;;;;;;;23.51;65.31;99862.59;4992244;28;20389;-73
2021/07/13 02:35:06;;;;;;;4.10;2.85;;;;;;;23.49;65.28;99862.28;4991971;28;20093;-72
2021/07/13 02:37:36;;;;;;;5.97;2.90;;;;;;;23.45;65.27;99866.50;4991941;28;20082;-72
2021/07/13 02:40:05;;;;;;;3.17;2.83;;;;;;;23.42;65.38;99873.88;4992065;28;20458;-71
2021/07/13 02:42:35;;;;;;;4.97;2.58;;;;;;;23.29;65.66;99850.41;4992399;28;20034;-72
2021/07/13 02:45:02;;;;;;;3.88;2.42;;;;;;;23.38;65.83;99870.34;4992419;28;20029;-72
2021/07/13 02:47:30;;;;;;;2.83;2.60;;;;;;;23.33;65.73;99868.13;4993122;28;20026;-72
2021/07/13 02:50:04;;;;;;;23.02;20.55;;;;;;;23.27;66.03;99859.38;4995801;28;20429;-72
2021/07/13 02:52:32;;;;;;;25.83;23.17;;;;;;;23.28;66.20;99871.53;4995409;28;20062;-71
2021/07/13 02:55:06;;;;;;;25.60;22.20;;;;;;;23.32;66.12;99880.72;4995611;28;20069;-71
2021/07/13 02:57:38;;;;;;;19.88;17.88;;;;;;;23.32;66.06;99872.19;4995052;28;20034;-72
2021/07/13 03:00:10;;;;;;;19.52;17.60;;;;;;;23.34;65.83;99869.72;4996269;28;20026;-70
2021/07/13 03:02:39;;;;;;;18.23;16.33;;;;;;;23.37;65.81;99867.97;4995011;28;20023;-71
2021/07/13 03:05:10;;;;;;;11.68;10.60;;;;;;;23.44;65.08;99860.03;4994957;28;20018;-72
2021/07/13 03:07:40;;;;;;;9.50;8.52;;;;;;;23.40;65.18;99859.34;4994928;28;20088;-71
2021/07/13 03:10:09;;;;;;;6.95;5.93;;;;;;;23.44;64.95;99860.03;5015171;28;20099;-73
2021/07/13 03:12:37;;;;;;;7.50;3.83;;;;;;;23.44;64.45;99857.19;5015322;28;20026;-73
2021/07/13 03:15:10;;;;;;;9.10;4.07;;;;;;;23.50;63.87;99863.88;4997988;28;20036;-72
2021/07/13 03:17:38;;;;;;;4.18;3.55;;;;;;;23.41;63.67;99849.56;4995116;28;20488;-71
2021/07/13 03:20:07;;;;;;;3.58;2.67;;;;;;;23.39;63.39;99843.56;4997788;28;20030;-72
2021/07/13 03:22:42;;;;;;;6.10;3.13;;;;;;;23.41;62.92;99846.75;5015681;28;20026;-71
2021/07/13 03:25:13;;;;;;;4.47;3.00;;;;;;;23.40;62.60;99842.31;4998298;28;20089;-72
2021/07/13 03:27:40;;;;;;;5.80;3.08;;;;;;;23.37;62.47;99845.28;4997411;28;20030;-70
2021/07/13 03:30:10;;;;;;;2.95;2.75;;;;;;;23.29;62.68;99836.22;4998243;28;20033;-71
2021/07/13 03:32:37;;;;;;;6.32;3.17;;;;;;;23.31;62.16;99833.72;4997637;28;20026;-72
2021/07/13 03:35:04;;;;;;;4.75;3.30;;;;;;;23.28;62.37;99823.28;4998055;28;20465;-72
2021/07/13 03:37:35;;;;;;;5.82;4.30;;;;;;;23.26;62.25;99828.63;4997695;28;20073;-72
2021/07/13 03:40:04;;;;;;;4.45;4.03;;;;;;;23.27;61.78;99824.53;4997967;28;20033;-72
2021/07/13 03:42:34;;;;;;;5.47;4.97;;;;;;;23.26;61.70;99826.56;4997095;28;20022;-72
2021/07/13 03:45:03;;;;;;;3.22;2.78;;;;;;;23.28;61.43;99823.28;4997448;28;20112;-72
2021/07/13 03:47:31;;;;;;;3.53;2.63;;;;;;;23.24;61.15;99819.78;4997326;28;20024;-73
2021/07/13 03:49:58;;;;;;;4.07;2.53;;;;;;;23.23;61.30;99810.47;4996969;28;20029;-71
2021/07/13 03:52:26;;;;;;;6.65;3.67;;;;;;;23.24;61.21;99808.44;4997250;28;20495;-70
2021/07/13 03:54:55;;;;;;;10.07;8.90;;;;;;;23.23;61.38;99796.28;4997738;28;20038;-71
2021/07/13 03:57:20;;;;;;;12.70;11.55;;;;;;;23.19;60.37;99797.66;4997406;28;20040;-72
2021/07/13 03:59:51;;;;;;;8.27;6.28;;;;;;;23.17;60.67;99800.13;4996649;28;20388;-72
2021/07/13 04:02:19;;;;;;;9.05;6.40;;;;;;;23.02;61.77;99813.25;4996978;28;20109;-73
2021/07/13 04:04:47;;;;;;;6.07;4.10;;;;;;;23.19;63.17;99818.31;4996980;28;20036;-70
2021/07/13 04:07:17;;;;;;;7.85;4.32;;;;;;;23.16;62.21;99829.78;4996936;28;20034;-71
2021/07/13 04:09:48;;;;;;;6.63;5.88;;;;;;;23.21;62.26;99844.19;4993381;28;20053;-72
2021/07/13 04:12:16;;;;;;;7.20;6.50;;;;;;;23.34;62.32;99852.69;4994730;28;20098;-71
2021/07/13 04:14:42;;;;;;;11.82;7.65;;;;;;;23.47;61.85;99856.25;4993672;28;20496;-73
2021/07/13 04:17:10;;;;;;;4.95;4.40;;;;;;;23.63;60.92;99854.53;4993637;28;20030;-71
2021/07/13 04:19:38;;;;;;;6.90;3.72;;;;;;;23.73;60.85;99839.94;4993538;28;20040;-71
2021/07/13 04:22:08;;;;;;;4.28;3.05;;;;;;;23.87;60.26;99827.28;4993553;28;20129;-71
2021/07/13 04:24:34;;;;;;;3.25;2.40;;;;;;;23.97;60.19;99826.09;4993928;28;20038;-71
2021/07/13 04:27:02;;;;;;;3.35;2.70;;;;;;;24.16;59.50;99831.88;4993674;28;20389;-71
2021/07/13 04:29:30;;;;;;;4.00;2.60;;;;;;;24.40;58.92;99841.53;4993377;28;20113;-71
2021/07/13 04:32:06;;;;;;;3.47;2.55;;;;;;;24.63;57.65;99850.78;4993572;28;20031;-71
2021/07/13 04:34:34;;;;;;;9.95;2.95;;;;;;;24.74;56.85;99848.28;4993680;28;20034;-71
2021/07/13 04:37:01;;;;;;;5.55;2.10;;;;;;;24.79;57.06;99844.84;4993238;28;20033;-73
2021/07/13 04:39:31;;;;;;;3.72;2.20;;;;;;;24.83;57.14;99856.88;4993605;28;20049;-71
2021/07/13 04:42:01;;;;;;;4.53;2.30;;;;;;;25.02;56.56;99852.81;4993039;28;20038;-71
2021/07/13 04:44:32;;;;;;;7.88;2.50;;;;;;;25.19;56.17;99849.69;4992989;28;20042;-71
2021/07/13 04:47:03;;;;;;;4.15;3.53;;;;;;;25.31;55.89;99857.34;4992971;28;20038;-71
2021/07/13 04:49:33;;;;;;;2.42;2.03;;;;;;;25.44;55.09;99860.03;4993044;28;20080;-72
2021/07/13 04:52:01;;;;;;;3.00;2.45;;;;;;;25.72;54.92;99852.28;4993068;28;20030;-72
2021/07/13 04:54:31;;;;;;;2.92;2.42;;;;;;;25.82;54.90;99857.53;4993587;28;20311;-71
2021/07/13 04:57:01;;;;;;;3.38;2.28;;;;;;;25.89;53.90;99856.44;4993173;28;20029;-71
2021/07/13 04:59:28;;;;;;;3.85;2.65;;;;;;;26.13;53.16;99859.41;4977117;28;20038;-73
2021/07/13 05:01:59;;;;;;;2.70;2.20;;;;;;;26.24;53.07;99854.00;4992913;28;20536;-71
2021/07/13 05:04:27;;;;;;;3.05;2.67;;;;;;;26.22;52.88;99862.25;4992912;28;20485;-70
2021/07/13 05:06:53;;;;;;;4.28;2.72;;;;;;;26.53;52.64;99853.47;4993125;28;20128;-72
2021/07/13 05:09:21;;;;;;;2.67;2.35;;;;;;;26.30;52.09;99852.06;4992631;28;20498;-71
2021/07/13 05:11:50;;;;;;;6.05;2.83;;;;;;;26.49;52.83;99841.44;4992527;28;20082;-71
2021/07/13 05:14:18;;;;;;;3.78;2.42;;;;;;;26.76;51.55;99831.19;4993680;28;20129;-73
2021/07/13 05:16:49;;;;;;;3.83;2.30;;;;;;;26.84;51.50;99838.09;4993156;28;20033;-73
2021/07/13 05:19:20;;;;;;;4.07;2.50;;;;;;;27.09;50.68;99826.25;4993226;28;20159;-72
2021/07/13 05:22:00;;;;;;;3.20;2.83;;;;;;;27.05;50.67;99828.47;4992763;28;20082;-74
2021/07/13 05:24:31;;;;;;;4.55;2.53;;;;;;;27.26;49.92;99825.84;4992717;28;20026;-72
2021/07/13 05:27:06;;;;;;;6.15;2.33;;;;;;;27.47;50.05;99832.50;4993321;28;20049;-72
2021/07/13 05:29:40;;;;;;;5.40;2.60;;;;;;;27.33;49.66;99829.13;4993275;28;20031;-71
2021/07/13 05:32:08;;;;;;;3.00;2.70;;;;;;;27.44;49.77;99822.84;4994543;28;20026;-71
2021/07/13 05:34:37;;;;;;;6.35;2.58;;;;;;;27.38;49.69;99824.81;4992720;28;20072;-72
2021/07/13 05:37:06;;;;;;;2.80;2.55;;;;;;;27.52;49.71;99835.47;4992686;28;20030;-72
2021/07/13 05:39:37;;;;;;;4.65;2.40;;;;;;;27.97;48.95;99836.41;4994100;28;20037;-72
2021/07/13 05:42:04;;;;;;;3.42;2.95;;;;;;;28.23;48.15;99830.06;4992687;28;20482;-72
2021/07/13 05:44:32;;;;;;;6.25;3.63;;;;;;;28.12;48.24;99831.44;4992567;28;20038;-72
2021/07/13 05:46:58;;;;;;;3.45;2.70;;;;;;;28.46;47.92;99820.63;4993033;28;20026;-71
2021/07/13 05:49:25;;;;;;;5.05;3.47;;;;;;;28.23;48.02;99824.34;4992630;28;20042;-72
2021/07/13 05:51:54;;;;;;;4.97;3.15;;;;;;;28.64;47.44;99816.75;4993624;28;20512;-73
2021/07/13 05:54:22;;;;;;;6.25;3.72;;;;;;;29.03;45.87;99805.91;4992652;28;20030;-73
2021/07/13 05:56:54;;;;;;;4.68;4.25;;;;;;;29.28;45.34;99815.88;4992651;28;20034;-71
2021/07/13 05:59:22;;;;;;;7.50;5.70;;;;;;;29.40;44.71;99816.78;4993798;28;20030;-73
2021/07/13 06:01:52;;;;;;;7.30;4.63;;;;;;;29.52;44.27;99817.72;4992585;28;20088;-73
2021/07/13 06:04:20;;;;;;;4.57;4.15;;;;;;;29.75;43.52;99814.63;4992524;28;20027;-73
2021/07/13 06:06:46;;;;;;;6.20;3.58;;;;;;;29.57;42.89;99822.78;4992453;28;20112;-73
2021/07/13 06:09:14;;;;;;;4.47;3.40;;;;;;;30.09;42.37;99828.53;4992293;28;20078;-73
2021/07/13 06:11:40;;;;;;;5.72;3.22;;;;;;;30.25;40.85;99845.13;4993038;28;20389;-73
2021/07/13 06:14:09;;;;;;;7.03;3.55;;;;;;;30.64;40.82;99854.09;4992437;28;20371;-72
2021/07/13 06:16:40;;;;;;;4.05;2.75;;;;;;;31.05;39.57;99865.38;4992393;28;20034;-72
2021/07/13 06:19:08;;;;;;;3.63;3.00;;;;;;;31.22;38.44;99851.13;4992235;28;20026;-72
2021/07/13 06:21:36;;;;;;;4.55;2.70;;;;;;;31.71;37.66;99864.19;4992340;28;20033;-74
2021/07/13 06:24:05;;;;;;;6.38;3.90;;;;;;;31.41;37.62;99863.78;4995669;28;20064;-72
2021/07/13 06:26:33;;;;;;;5.30;2.85;;;;;;;31.56;37.02;99878.75;4995905;28;20492;-72
2021/07/13 06:29:02;;;;;;;5.88;2.72;;;;;;;32.02;36.79;99888.38;4995380;28;20031;-74
2021/07/13 06:31:30;;;;;;;5.35;2.70;;;;;;;32.28;35.71;99888.94;4995905;28;20034;-71
2021/07/13 06:33:58;;;;;;;4.15;2.50;;;;;;;32.36;34.96;99902.84;4996346;28;20126;-72
2021/07/13 06:36:29;;;;;;;4.28;2.33;;;;;;;32.92;34.38;99902.88;4996077;28;20023;-72
2021/07/13 06:38:57;;;;;;;3.92;2.70;;;;;;;33.02;34.46;99886.88;4995733;28;20138;-72
2021/07/13 06:41:23;;;;;;;5.95;2.13;;;;;;;33.45;33.34;99892.31;4995827;28;20030;-73
2021/07/13 06:43:48;;;;;;;3.83;2.00;;;;;;;33.36;33.19;99878.97;4995887;28;20381;-72
2021/07/13 06:46:17;;;;;;;3.80;1.92;;;;;;;33.59;32.85;99882.56;4996064;28;20034;-74
2021/07/13 06:48:47;;;;;;;3.30;2.30;;;;;;;33.22;33.38;99889.47;4995530;28;20033;-73
2021/07/13 06:51:15;;;;;;;3.30;2.38;;;;;;;32.70;33.98;99886.38;4995675;28;20093;-72
2021/07/13 06:53:47;;;;;;;4.28;2.78;;;;;;;32.44;34.73;99890.31;4997543;28;20447;-73
2021/07/13 06:56:18;;;;;;;3.73;2.50;;;;;;;32.41;35.10;99891.34;4992492;28;20072;-72
2021/07/13 06:58:49;;;;;;;3.72;2.90;;;;;;;32.59;34.44;99890.81;4996326;28;20439;-73
2021/07/13 07:01:14;;;;;;;5.35;2.80;;;;;;;32.86;34.12;99877.69;4996634;28;20030;-71
2021/07/13 07:03:45;;;;;;;5.38;2.67;;;;;;;32.72;34.12;99880.88;4995357;28;20501;-72
2021/07/13 07:06:13;;;;;;;3.10;2.78;;;;;;;32.89;34.22;99878.00;4995383;28;20034;-72
2021/07/13 07:08:42;;;;;;;6.35;3.25;;;;;;;33.07;33.55;99877.44;4995228;28;20132;-73
2021/07/13 07:11:08;;;;;;;4.20;2.60;;;;;;;32.90;34.14;99879.56;4995550;28;20093;-73
2021/07/13 07:13:38;;;;;;;4.30;2.72;;;;;;;32.72;34.56;99881.66;4995425;28;20492;-73
2021/07/13 07:16:06;;;;;;;4.38;3.22;;;;;;;32.06;35.88;99877.38;4995265;28;20030;-73
2021/07/13 07:18:34;;;;;;;7.47;4.38;;;;;;;31.26;37.36;99866.81;4995762;28;20121;-72
2021/07/13 07:21:00;;;;;;;5.78;4.40;;;;;;;31.77;36.79;99882.22;4995247;28;20121;-73
2021/07/13 07:23:26;;;;;;;5.32;4.03;;;;;;;31.96;36.88;99881.78;4995741;28;20076;-73
2021/07/13 07:25:52;;;;;;;10.25;3.80;;;;;;;31.79;36.70;99879.63;4995160;28;20042;-73
2021/07/13 07:28:22;;;;;;;4.68;3.40;;;;;;;31.61;36.76;99870.66;4995051;28;20030;-73
2021/07/13 07:30:49;;;;;;;6.85;3.72;;;;;;;31.80;37.04;99884.13;4994827;28;20057;-73
2021/07/13 07:33:15;;;;;;;6.50;3.95;;;;;;;32.43;35.91;99900.22;4995242;28;20026;-73
2021/07/13 07:35:41;;;;;;;7.55;4.03;;;;;;;32.18;36.11;99890.50;4994737;28;20108;-73
2021/07/13 07:38:13;;;;;;;6.90;4.30;;;;;;;32.45;35.68;99893.97;4994879;28;20441;-73
2021/07/13 07:40:43;;;;;;;9.45;5.55;;;;;;;32.20;36.36;99892.84;4994860;28;20125;-73
2021/07/13 07:43:12;;;;;;;5.30;4.55;;;;;;;32.54;35.81;99877.19;4995369;28;20428;-73
2021/07/13 07:45:40;;;;;;;6.15;4.05;;;;;;;32.26;35.91;99859.88;4995732;28;20109;-72
2021/07/13 07:48:08;;;;;;;10.18;4.30;;;;;;;31.95;37.44;99860.88;4995201;28;20034;-73
2021/07/13 07:50:38;;;;;;;8.48;5.15;;;;;;;31.91;37.67;99873.94;4994933;28;20081;-71
2021/07/13 07:53:09;;;;;;;9.70;5.03;;;;;;;32.37;36.43;99885.03;4994554;28;20026;-74
2021/07/13 07:55:38;;;;;;;7.05;5.10;;;;;;;32.65;35.63;99884.25;4994310;28;20065;-73
2021/07/13 07:58:04;;;;;;;7.63;4.80;;;;;;;32.06;36.85;99880.25;4994211;28;20034;-72
2021/07/13 08:00:32;;;;;;;5.25;4.35;;;;;;;32.36;36.79;99882.69;4994266;28;20051;-73
2021/07/13 08:03:01;;;;;;;4.30;3.90;;;;;;;32.98;35.61;99875.66;4994270;28;20026;-73
2021/07/13 08:05:32;;;;;;;9.70;4.05;;;;;;;32.37;36.85;99882.16;4993909;28;20034;-73
2021/07/13 08:08:02;;;;;;;7.85;3.97;;;;;;;31.84;37.39;99865.81;4996508;28;20026;-73
2021/07/13 08:10:28;;;;;;;6.60;4.93;;;;;;;31.46;37.72;99854.41;4997831;28;20443;-73
2021/07/13 08:12:58;;;;;;;9.13;4.07;;;;;;;31.40;37.49;99864.31;4997404;28;20038;-73
2021/07/13 08:15:26;;;;;;;9.23;5.43;;;;;;;31.93;37.00;99877.09;4997264;28;20026;-73
2021/07/13 08:17:57;;;;;;;12.73;5.00;;;;;;;33.24;34.63;99883.97;4997780;28;20119;-71
2021/07/13 08:20:28;;;;;;;7.38;5.50;;;;;;;34.05;33.25;99881.06;4997372;28;20030;-71
2021/07/13 08:22:56;;;;;;;9.57;5.43;;;;;;;33.49;34.86;99881.28;5014551;28;20037;-73
2021/07/13 08:25:25;;;;;;;11.18;6.30;;;;;;;33.18;35.25;99897.59;4997182;28;20037;-74
2021/07/13 08:27:53;;;;;;;10.65;5.55;;;;;;;33.93;33.72;99893.94;4997624;28;20492;-73
2021/07/13 08:30:21;;;;;;;9.77;5.88;;;;;;;34.50;32.96;99901.00;4997346;28;20084;-72
2021/07/13 08:32:49;;;;;;;12.65;7.20;;;;;;;34.74;31.67;99892.41;4997516;28;20060;-74
2021/07/13 08:35:17;;;;;;;9.73;6.35;;;;;;;35.18;30.94;99914.34;4996962;28;20088;-72
2021/07/13 08:37:51;;;;;;;11.45;6.35;;;;;;;35.83;30.66;99906.00;4997401;28;20369;-72
2021/07/13 08:40:19;;;;;;;7.13;4.88;;;;;;;35.31;29.58;99910.78;4981533;28;20034;-74
2021/07/13 08:42:48;;;;;;;8.27;5.15;;;;;;;34.96;30.04;99913.78;4997373;28;20084;-71
2021/07/13 08:45:19;;;;;;;9.65;5.38;;;;;;;34.49;32.25;99899.44;5013932;28;20030;-72
2021/07/13 08:47:48;;;;;;;7.68;4.93;;;;;;;35.75;29.66;99905.84;4996744;28;20037;-73
2021/07/13 08:50:19;;;;;;;11.63;5.47;;;;;;;36.27;29.29;99903.84;5014430;28;20057;-73
2021/07/13 08:52:49;;;;;;;9.82;5.95;;;;;;;35.02;31.46;99900.84;4996740;28;20030;-73
2021/07/13 08:55:17;;;;;;;9.52;6.97;;;;;;;34.80;31.40;99896.03;4997387;28;20424;-73
2021/07/13 08:57:48;;;;;;;7.13;5.10;;;;;;;34.98;30.84;99894.56;5014219;28;20049;-72
2021/07/13 09:00:20;;;;;;;6.50;4.60;;;;;;;34.27;32.01;99892.47;4996481;28;20495;-72
2021/07/13 09:03:06;;;;;;;12.32;5.30;;;;;;;32.73;33.89;99894.75;4996529;28;20080;-72
2021/07/13 09:05:51;;;;;;;7.82;4.50;;;;;;;32.32;33.83;99888.66;4996677;28;20036;-72
2021/07/13 09:08:24;;;;;;;8.55;5.00;;;;;;;31.72;35.33;99871.50;4992922;28;20046;-72
2021/07/13 09:11:07;;;;;;;6.53;4.13;;;;;;;31.40;34.30;99859.34;4993933;28;20034;-72
2021/07/13 09:13:36;;;;;;;6.60;4.55;;;;;;;32.60;32.13;99862.81;4993706;28;20030;-73
2021/07/13 09:16:04;;;;;;;6.95;3.75;;;;;;;33.34;30.26;99865.06;4992950;28;20487;-72
2021/07/13 09:18:36;;;;;;;7.50;4.70;;;;;;;33.57;30.30;99870.78;4992851;28;20030;-73
2021/07/13 09:21:21;;;;;;;5.68;2.63;;;;;;;32.98;30.37;99857.56;4992914;28;20054;-73
2021/07/13 09:24:11;;;;;;;3.38;2.53;;;;;;;32.36;31.21;99845.28;4993435;28;20026;-72
2021/07/13 09:26:45;;;;;;;;;;;;;;;32.51;30.52;99842.91;4994758;28;20037;-73
2021/07/13 09:29:39;;;;;;;4.10;2.20;;;;;;;33.26;29.58;99837.31;4992860;28;20008;-72
2021/07/13 09:32:37;;;;;;;3.17;2.88;;;;;;;34.06;29.11;99834.34;4993149;28;20030;-72
2021/07/13 09:35:09;;;;;;;2.50;2.30;;;;;;;33.98;29.14;99816.03;4984915;28;20482;-72
2021/07/13 09:37:47;;;;;;;4.77;2.97;;;;;;;34.63;28.60;99823.19;4992751;28;20121;-71
2021/07/13 09:40:17;;;;;;;3.45;2.58;;;;;;;34.61;28.23;99829.47;4994022;28;20120;-72
2021/07/13 09:42:48;;;;;;;8.30;3.00;;;;;;;34.98;27.82;99830.19;4992759;28;20042;-73
2021/07/13 09:45:23;;;;;;;6.07;2.80;;;;;;;35.78;27.05;99820.03;4992679;28;20040;-73
2021/07/13 09:47:52;;;;;;;8.00;2.67;;;;;;;36.13;27.01;99831.38;4992504;28;20474;-72
2021/07/13 09:50:34;;;;;;;2.65;2.40;;;;;;;35.64;27.62;99836.56;4992765;28;20121;-72
2021/07/13 09:53:04;;;;;;;3.92;2.60;;;;;;;35.89;26.57;99834.34;4992690;28;20117;-73
2021/07/13 09:55:33;;;;;;;2.28;2.00;;;;;;;36.50;25.48;99837.69;4992902;28;20041;-73
2021/07/13 09:58:17;;;;;;;4.68;2.60;;;;;;;36.16;26.13;99838.97;4994641;28;20035;-73
2021/07/13 10:00:47;;;;;;;2.35;1.88;;;;;;;37.22;24.72;99845.06;4997421;28;20034;-73
2021/07/13 10:03:15;;;;;;;5.28;1.90;;;;;;;37.18;24.50;99844.63;4996805;28;20057;-72
2021/07/13 10:05:45;;;;;;;3.47;2.33;;;;;;;36.45;25.43;99836.44;4996932;28;20033;-73
2021/07/13 10:08:15;;;;;;;2.55;2.35;;;;;;;36.89;25.60;99837.00;4996212;28;20054;-73
2021/07/13 10:10:43;;;;;;;5.82;2.65;;;;;;;36.25;24.98;99823.31;4996737;28;20452;-73
2021/07/13 10:13:14;;;;;;;4.05;2.47;;;;;;;35.90;26.13;99822.25;4996356;28;20038;-72
2021/07/13 10:15:44;;;;;;;6.75;2.00;;;;;;;35.08;26.67;99811.94;4996332;28;20022;-73
2021/07/13 10:18:11;;;;;;;2.78;1.67;;;;;;;35.03;26.52;99820.69;4997857;28;20425;-72
2021/07/13 10:20:39;;;;;;;2.33;2.08;;;;;;;35.01;24.86;99811.78;4996760;28;20082;-72
2021/07/13 10:23:09;;;;;;;3.55;2.20;;;;;;;34.80;25.88;99809.34;4980284;28;20488;-73
2021/07/13 10:25:36;;;;;;;3.33;1.98;;;;;;;34.16;25.05;99799.41;4997223;28;20018;-73
2021/07/13 10:28:05;;;;;;;1.85;1.55;;;;;;;34.05;25.10;99803.16;4996043;28;20085;-72
2021/07/13 10:30:31;;;;;;;1.23;1.13;;;;;;;33.89;22.74;99796.91;4997692;28;20167;-73
2021/07/13 10:32:59;;;;;;;3.72;1.27;;;;;;;33.57;23.77;99799.47;4996289;28;20034;-72
2021/07/13 10:35:31;;;;;;;1.45;1.38;;;;;;;33.68;22.59;99800.72;4996472;28;20125;-73
2021/07/13 10:38:20;;;;;;;3.22;1.30;;;;;;;33.17;23.98;99794.38;4996169;28;20469;-73
2021/07/13 10:40:51;;;;;;;2.38;1.30;;;;;;;33.23;24.15;99816.09;4996168;28;20034;-71
2021/07/13 10:43:23;;;;;;;2.20;1.20;;;;;;;33.21;23.71;99836.03;4996317;28;20355;-73
2021/07/13 10:46:11;;;;;;;2.35;1.25;;;;;;;33.71;22.80;99846.59;4996133;28;20026;-71
2021/07/13 10:48:42;;;;;;;1.15;1.05;;;;;;;33.85;21.64;99848.34;4995813;28;20030;-73
2021/07/13 10:51:09;;;;;;;3.30;1.00;;;;;;;34.08;20.34;99845.34;4996114;28;20493;-73
2021/07/13 10:53:43;;;;;;;1.52;1.17;;;;;;;33.98;21.33;99833.34;4995735;28;20030;-73
2021/07/13 10:56:12;;;;;;;3.45;1.20;;;;;;;34.08;21.91;99836.69;4996138;28;20434;-72
2021/07/13 10:58:39;;;;;;;1.23;1.13;;;;;;;34.69;22.02;99844.13;4995485;28;20130;-72
2021/07/13 11:01:18;;;;;;;2.63;1.20;;;;;;;34.53;22.27;99845.06;4995489;28;20022;-73
2021/07/13 11:03:44;;;;;;;1.63;1.52;;;;;;;34.67;22.44;99849.63;4995477;28;20031;-73
2021/07/13 11:06:21;;;;;;;2.75;1.55;;;;;;;34.64;22.83;99842.06;4996078;28;20537;-73
2021/07/13 11:08:58;;;;;;;2.35;1.50;;;;;;;34.32;23.32;99851.22;4995102;28;20489;-73
2021/07/13 11:11:29;;;;;;;2.00;1.70;;;;;;;34.90;22.67;99848.13;4995242;28;20034;-73
2021/07/13 11:14:05;;;;;;;2.97;1.98;;;;;;;35.71;21.36;99867.75;4995700;28;20081;-72
2021/07/13 11:16:38;;;;;;;2.22;1.83;;;;;;;36.29;20.24;99855.63;4995105;28;20029;-71
2021/07/13 11:19:15;;;;;;;4.88;1.80;;;;;;;36.59;20.51;99869.13;4995311;28;20030;-71
2021/07/13 11:21:44;;;;;;;5.05;1.70;;;;;;;37.03;19.83;99861.78;4996829;28;20030;-71
2021/07/13 11:24:11;;;;;;;1.85;1.35;;;;;;;37.15;18.56;99859.44;4994888;28;20031;-73
2021/07/13 11:26:44;;;;;;;2.60;1.40;;;;;;;37.05;18.65;99859.09;4995030;28;20053;-72
2021/07/13 11:29:28;;;;;;;3.42;1.90;;;;;;;37.84;17.45;99858.34;4995208;28;20038;-71
2021/07/13 11:31:58;;;;;;;0.88;0.88;;;;;;;37.92;14.91;99853.38;4994855;28;20108;-72
2021/07/13 11:34:26;;;;;;;1.50;1.10;;;;;;;37.64;14.26;99845.28;4994693;28;20033;-71
2021/07/13 11:36:54;;;;;;;2.38;0.90;;;;;;;37.84;14.05;99840.91;4994913;28;20470;-73
2021/07/13 11:39:29;;;;;;;1.52;1.02;;;;;;;37.62;17.05;99844.28;4994951;28;20027;-73
2021/07/13 11:42:03;;;;;;;2.65;1.20;;;;;;;37.44;19.04;99843.84;4996295;28;20030;-73
2021/07/13 11:44:29;;;;;;;2.55;1.40;;;;;;;36.44;19.99;99844.34;4996126;28;20030;-71
2021/07/13 11:47:03;;;;;;;2.08;1.20;;;;;;;37.05;17.23;99850.41;4994211;28;20041;-72
2021/07/13 11:49:33;;;;;;;1.00;1.00;;;;;;;37.69;15.72;99852.31;4994455;28;20037;-72